createdAt,value
2017-12-19T19:01:23.042Z,6.91
2017-12-19T19:02:31.870Z,6.87
2017-12-19T19:03:40.701Z,6.91
2017-12-19T19:04:49.811Z,6.94
2017-12-19T19:05:58.636Z,6.94
2017-12-19T19:07:07.465Z,7.03
2017-12-19T19:08:16.296Z,7.02
2017-12-19T19:09:25.396Z,6.95
2017-12-19T19:10:34.409Z,6.89
2017-12-19T19:11:43.389Z,6.95
2017-12-19T19:12:52.220Z,6.88
2017-12-19T19:14:01.328Z,6.94
2017-12-19T19:15:10.165Z,6.95
2017-12-19T19:16:19.267Z,7.06
2017-12-19T19:17:28.248Z,7.05
2017-12-19T19:18:37.076Z,6.94
2017-12-19T19:19:45.906Z,6.87
2017-12-19T19:20:54.738Z,6.79
2017-12-19T19:22:03.571Z,6.79
2017-12-19T19:23:12.397Z,6.87
2017-12-19T19:24:21.229Z,6.87
2017-12-19T19:25:30.058Z,6.81
2017-12-19T19:26:38.889Z,6.85
2017-12-19T19:27:47.718Z,6.92
2017-12-19T19:28:56.546Z,6.85
2017-12-19T19:30:05.375Z,6.85
2017-12-19T19:31:14.210Z,6.85
2017-12-19T19:32:23.394Z,6.81
2017-12-19T19:33:33.351Z,6.74
2017-12-19T19:34:42.425Z,6.79
2017-12-19T19:35:52.392Z,6.84
2017-12-19T19:37:01.820Z,6.71
2017-12-19T19:38:10.923Z,6.79
2017-12-19T19:39:19.873Z,6.73
2017-12-19T19:40:29.817Z,6.81
2017-12-19T19:41:39.209Z,6.81
2017-12-19T19:42:48.354Z,6.85
2017-12-19T19:43:57.183Z,6.87
2017-12-19T19:45:06.603Z,6.76
2017-12-19T19:46:16.337Z,6.77
2017-12-19T19:47:25.166Z,6.79
2017-12-19T19:48:34.271Z,6.89
2017-12-19T19:49:43.107Z,6.87
2017-12-19T19:50:52.099Z,6.88
2017-12-19T19:52:01.194Z,6.81
2017-12-19T19:53:10.296Z,6.84
2017-12-19T19:54:19.577Z,6.88
2017-12-19T19:55:28.721Z,6.85
2017-12-19T19:56:38.324Z,6.94
2017-12-19T19:59:56.021Z,6.92
2017-12-19T20:01:05.074Z,6.87
2017-12-19T20:02:13.993Z,6.87
2017-12-19T20:03:22.954Z,6.88
2017-12-19T20:04:32.208Z,6.88
2017-12-19T20:05:41.032Z,6.87
2017-12-19T20:06:50.153Z,6.88
2017-12-19T20:07:58.983Z,6.76
2017-12-19T20:09:07.881Z,6.89
2017-12-19T20:10:16.797Z,6.89
2017-12-19T20:11:25.998Z,6.88
2017-12-19T20:12:34.849Z,6.84
2017-12-19T20:13:43.725Z,6.85
2017-12-19T20:14:52.705Z,6.77
2017-12-19T20:16:01.534Z,6.74
2017-12-19T20:17:10.363Z,6.81
2017-12-19T20:18:19.468Z,6.94
2017-12-19T20:19:28.299Z,6.85
2017-12-19T20:20:37.276Z,6.89
2017-12-19T20:21:46.104Z,6.87
2017-12-19T20:22:54.937Z,6.89
2017-12-19T20:24:03.766Z,6.8
2017-12-19T20:25:12.594Z,6.84
2017-12-19T20:26:22.038Z,6.91
2017-12-19T20:27:30.812Z,6.89
2017-12-19T20:28:39.642Z,6.89
2017-12-19T20:29:48.740Z,6.81
2017-12-19T20:30:57.572Z,6.92
2017-12-19T20:32:06.400Z,6.87
2017-12-19T20:33:15.510Z,6.88
2017-12-19T20:34:24.340Z,6.79
2017-12-19T20:35:33.172Z,6.92
2017-12-19T20:36:42.004Z,6.87
2017-12-19T20:37:50.834Z,6.85
2017-12-19T20:38:59.662Z,6.84
2017-12-19T20:40:08.493Z,6.87
2017-12-19T20:41:17.321Z,6.92
2017-12-19T20:42:26.396Z,6.89
2017-12-19T20:43:35.552Z,6.79
2017-12-19T20:44:44.425Z,6.87
2017-12-19T20:45:53.553Z,6.89
2017-12-19T20:47:02.430Z,6.84
2017-12-19T20:48:11.629Z,6.89
2017-12-19T20:49:20.490Z,6.88
2017-12-19T20:50:29.344Z,6.92
2017-12-19T20:51:38.207Z,6.91
2017-12-19T20:52:47.111Z,6.99
2017-12-19T20:53:56.169Z,6.97
2017-12-19T20:55:05.215Z,6.97
2017-12-19T20:56:14.348Z,6.98
2017-12-19T20:57:23.254Z,7.02
2017-12-19T20:58:32.863Z,7.02
2017-12-19T20:59:41.775Z,6.99
2017-12-19T21:00:50.858Z,6.91
2017-12-19T21:01:59.712Z,6.99
2017-12-19T21:03:08.542Z,7.05
2017-12-19T21:04:17.374Z,7.06
2017-12-19T21:05:26.256Z,6.97
2017-12-19T21:06:35.507Z,6.87
2017-12-19T21:07:44.339Z,6.84
2017-12-19T21:08:53.169Z,6.94
2017-12-19T21:10:01.998Z,6.88
2017-12-19T21:11:10.828Z,6.87
2017-12-19T21:12:19.868Z,6.88
2017-12-19T21:13:28.893Z,6.97
2017-12-19T21:14:37.966Z,6.94
2017-12-19T21:15:47.029Z,6.94
2017-12-19T21:16:56.052Z,6.91
2017-12-19T21:18:05.397Z,6.92
2017-12-19T21:19:14.331Z,6.88
2017-12-19T21:20:23.157Z,6.89
2017-12-19T21:21:31.987Z,6.89
2017-12-19T21:22:40.820Z,6.81
2017-12-19T21:23:49.753Z,6.91
2017-12-19T21:24:58.580Z,6.94
2017-12-19T21:26:07.409Z,6.97
2017-12-19T21:27:16.238Z,6.88
2017-12-19T21:28:25.069Z,6.92
2017-12-19T21:29:33.949Z,6.94
2017-12-19T21:30:42.783Z,6.92
2017-12-19T21:31:51.606Z,6.91
2017-12-19T21:33:00.438Z,6.91
2017-12-19T21:34:09.269Z,6.88
2017-12-19T21:35:18.398Z,6.95
2017-12-19T21:36:27.231Z,6.91
2017-12-19T21:37:36.063Z,6.88
2017-12-19T21:38:45.163Z,6.92
2017-12-19T21:39:53.988Z,6.87
2017-12-19T21:41:02.817Z,6.94
2017-12-19T21:42:11.648Z,6.88
2017-12-19T21:43:21.299Z,6.8
2017-12-19T21:44:30.127Z,6.87
2017-12-19T21:45:38.955Z,6.97
2017-12-19T21:46:47.784Z,6.89
2017-12-19T21:47:56.611Z,6.84
2017-12-19T21:49:05.438Z,6.92
2017-12-19T21:50:14.268Z,6.89
2017-12-19T21:51:23.095Z,6.97
2017-12-19T21:52:31.973Z,7.02
2017-12-19T21:53:40.803Z,6.92
2017-12-19T21:54:49.631Z,6.91
2017-12-19T21:55:58.460Z,6.92
2017-12-19T21:57:07.564Z,6.91
2017-12-19T21:58:16.694Z,6.89
2017-12-19T21:59:25.796Z,6.88
2017-12-19T22:00:34.626Z,6.84
2017-12-19T22:01:43.454Z,6.92
2017-12-19T22:02:52.335Z,6.84
2017-12-19T22:04:01.587Z,6.89
2017-12-19T22:05:10.412Z,6.91
2017-12-19T22:06:19.241Z,6.85
2017-12-19T22:07:28.070Z,6.87
2017-12-19T22:08:36.897Z,6.92
2017-12-19T22:09:46.250Z,6.8
2017-12-19T22:10:55.078Z,6.88
2017-12-19T22:12:03.907Z,6.94
2017-12-19T22:13:12.735Z,6.89
2017-12-19T22:14:21.563Z,6.94
2017-12-19T22:15:30.388Z,6.95
2017-12-19T22:16:39.216Z,6.98
2017-12-19T22:17:48.046Z,6.84
2017-12-19T22:18:56.878Z,6.85
2017-12-19T22:20:05.702Z,6.85
2017-12-19T22:21:14.805Z,6.89
2017-12-19T22:22:23.636Z,6.92
2017-12-19T22:23:32.461Z,6.91
2017-12-19T22:24:41.298Z,6.95
2017-12-19T22:25:50.122Z,6.88
2017-12-19T22:26:58.952Z,6.92
2017-12-19T22:28:07.784Z,6.95
2017-12-19T22:29:16.606Z,6.87
2017-12-19T22:30:25.436Z,6.94
2017-12-19T22:31:34.538Z,6.94
2017-12-19T22:32:43.467Z,6.88
2017-12-19T22:33:52.292Z,7.02
2017-12-19T22:35:01.121Z,6.98
2017-12-19T22:36:09.951Z,7.02
2017-12-19T22:37:19.061Z,7.06
2017-12-19T22:38:27.940Z,7.03
2017-12-19T22:39:37.046Z,6.99
2017-12-19T22:40:45.875Z,7.07
2017-12-19T22:41:54.703Z,6.99
2017-12-19T22:43:03.531Z,6.97
2017-12-19T22:44:12.414Z,6.94
2017-12-19T22:45:21.238Z,6.99
2017-12-19T22:46:30.066Z,6.89
2017-12-19T22:47:38.896Z,6.89
2017-12-19T22:48:47.724Z,6.92
2017-12-19T22:49:56.550Z,6.88
2017-12-19T22:51:05.379Z,6.91
2017-12-19T22:52:14.211Z,6.88
2017-12-19T22:53:23.039Z,7.02
2017-12-19T22:54:31.867Z,6.99
2017-12-19T22:55:40.995Z,6.99
2017-12-19T22:56:49.824Z,6.99
2017-12-19T22:57:58.652Z,6.99
2017-12-19T22:59:07.760Z,7.05
2017-12-19T23:00:16.589Z,6.92
2017-12-19T23:01:25.715Z,7.02
2017-12-19T23:02:34.545Z,6.98
2017-12-19T23:03:43.373Z,7.03
2017-12-19T23:04:52.202Z,6.95
2017-12-19T23:06:01.031Z,7.03
2017-12-19T23:07:10.010Z,6.92
2017-12-19T23:08:18.835Z,6.95
2017-12-19T23:09:27.664Z,6.91
2017-12-19T23:10:36.494Z,6.94
2017-12-19T23:11:45.321Z,6.94
2017-12-19T23:12:54.249Z,6.91
2017-12-19T23:14:03.075Z,6.88
2017-12-19T23:15:11.902Z,6.91
2017-12-19T23:16:20.734Z,6.97
2017-12-19T23:17:29.841Z,6.91
2017-12-19T23:18:38.767Z,6.91
2017-12-19T23:19:47.592Z,6.91
2017-12-19T23:20:56.422Z,6.88
2017-12-19T23:22:05.252Z,6.92
2017-12-19T23:23:14.081Z,6.95
2017-12-19T23:24:23.231Z,6.99
2017-12-19T23:25:32.061Z,7.05
2017-12-19T23:26:40.886Z,6.99
2017-12-19T23:27:49.715Z,6.98
2017-12-19T23:28:58.543Z,6.97
2017-12-19T23:30:07.621Z,6.99
2017-12-19T23:31:16.451Z,7.05
2017-12-19T23:32:25.277Z,6.97
2017-12-19T23:33:34.104Z,7.02
2017-12-19T23:34:42.933Z,7.02
2017-12-19T23:35:52.010Z,6.99
2017-12-19T23:37:01.113Z,7.05
2017-12-19T23:38:09.939Z,6.98
2017-12-19T23:39:18.767Z,7.03
2017-12-19T23:40:27.595Z,7.03
2017-12-19T23:41:36.722Z,6.97
2017-12-19T23:42:45.555Z,7.06
2017-12-19T23:43:54.437Z,6.97
2017-12-19T23:45:03.486Z,6.87
2017-12-19T23:46:12.315Z,6.92
2017-12-19T23:47:21.294Z,6.91
2017-12-19T23:48:30.125Z,6.91
2017-12-19T23:49:38.952Z,6.95
2017-12-19T23:50:47.778Z,6.94
2017-12-19T23:51:56.606Z,6.89
2017-12-19T23:53:05.710Z,6.91
2017-12-19T23:54:14.538Z,6.94
2017-12-19T23:55:23.364Z,6.91
2017-12-19T23:56:32.191Z,6.94
2017-12-19T23:57:41.295Z,6.94
2017-12-19T23:58:50.172Z,6.88
2017-12-19T23:59:59.001Z,6.92
